sensor_id;sensor_type;location;lat;lon;timestamp;temperature;humidity
25342;DHT22;13298;48.792;9.154;2023-04-24T00:00:08;10.00;99.90
25342;DHT22;13298;48.792;9.154;2023-04-24T00:02:35;10.00;99.90
25342;DHT22;13298;48.792;9.154;2023-04-24T00:05:04;10.10;99.90
25342;DHT22;13298;48.792;9.154;2023-04-24T00:07:31;10.10;99.90
25342;DHT22;13298;48.792;9.154;2023-04-24T00:09:57;10.10;99.90
25342;DHT22;13298;48.792;9.154;2023-04-24T00:12:23;10.20;99.90
25342;DHT22;13298;48.792;9.154;2023-04-24T00:14:49;10.20;99.90
25342;DHT22;13298;48.792;9.154;2023-04-24T00:17:15;10.20;99.90
25342;DHT22;13298;48.792;9.154;2023-04-24T00:19:41;10.20;99.90
25342;DHT22;13298;48.792;9.154;2023-04-24T00:22:07;10.30;99.90
25342;DHT22;13298;48.792;9.154;2023-04-24T00:24:33;10.30;99.90
25342;DHT22;13298;48.792;9.154;2023-04-24T00:26:58;10.40;99.90
25342;DHT22;13298;48.792;9.154;2023-04-24T00:29:26;10.40;99.90
25342;DHT22;13298;48.792;9.154;2023-04-24T00:31:51;10.40;99.90
25342;DHT22;13298;48.792;9.154;2023-04-24T00:34:17;10.40;99.90
25342;DHT22;13298;48.792;9.154;2023-04-24T00:36:43;10.40;99.90
25342;DHT22;13298;48.792;9.154;2023-04-24T00:39:09;10.40;99.90
25342;DHT22;13298;48.792;9.154;2023-04-24T00:41:35;10.50;99.90
25342;DHT22;13298;48.792;9.154;2023-04-24T00:44:01;10.50;99.90
25342;DHT22;13298;48.792;9.154;2023-04-24T00:46:26;10.50;99.90
25342;DHT22;13298;48.792;9.154;2023-04-24T00:48:52;10.50;99.90
25342;DHT22;13298;48.792;9.154;2023-04-24T00:51:18;10.50;99.90
25342;DHT22;13298;48.792;9.154;2023-04-24T00:53:44;10.50;99.90
25342;DHT22;13298;48.792;9.154;2023-04-24T00:56:10;10.50;99.90
25342;DHT22;13298;48.792;9.154;2023-04-24T00:58:36;10.50;99.90
25342;DHT22;13298;48.792;9.154;2023-04-24T01:01:02;10.50;99.90
25342;DHT22;13298;48.792;9.154;2023-04-24T01:03:29;10.60;99.90
25342;DHT22;13298;48.792;9.154;2023-04-24T01:05:58;10.60;99.90
25342;DHT22;13298;48.792;9.154;2023-04-24T01:08:24;10.60;99.90
25342;DHT22;13298;48.792;9.154;2023-04-24T01:10:52;10.60;99.90
25342;DHT22;13298;48.792;9.154;2023-04-24T01:13:19;10.60;99.90
25342;DHT22;13298;48.792;9.154;2023-04-24T01:15:45;10.60;99.90
25342;DHT22;13298;48.792;9.154;2023-04-24T01:18:11;10.70;99.90
25342;DHT22;13298;48.792;9.154;2023-04-24T01:20:41;10.70;99.90
25342;DHT22;13298;48.792;9.154;2023-04-24T01:23:09;10.60;99.90
25342;DHT22;13298;48.792;9.154;2023-04-24T01:25:36;10.60;99.90
25342;DHT22;13298;48.792;9.154;2023-04-24T01:28:02;10.60;99.90
25342;DHT22;13298;48.792;9.154;2023-04-24T01:30:28;10.60;99.90
25342;DHT22;13298;48.792;9.154;2023-04-24T01:32:56;10.50;99.90
25342;DHT22;13298;48.792;9.154;2023-04-24T01:35:22;10.40;99.90
25342;DHT22;13298;48.792;9.154;2023-04-24T01:37:48;10.30;99.90
25342;DHT22;13298;48.792;9.154;2023-04-24T01:40:14;10.20;99.90
25342;DHT22;13298;48.792;9.154;2023-04-24T01:42:41;10.20;99.90
25342;DHT22;13298;48.792;9.154;2023-04-24T01:45:10;10.20;99.90
25342;DHT22;13298;48.792;9.154;2023-04-24T01:47:36;10.10;99.90
25342;DHT22;13298;48.792;9.154;2023-04-24T01:50:03;10.10;99.90
25342;DHT22;13298;48.792;9.154;2023-04-24T01:52:29;10.20;99.90
25342;DHT22;13298;48.792;9.154;2023-04-24T01:55:00;10.20;99.90
25342;DHT22;13298;48.792;9.154;2023-04-24T01:57:26;10.10;99.90
25342;DHT22;13298;48.792;9.154;2023-04-24T01:59:51;10.10;99.90
25342;DHT22;13298;48.792;9.154;2023-04-24T02:02:17;10.00;99.90
25342;DHT22;13298;48.792;9.154;2023-04-24T02:04:43;10.00;99.90
25342;DHT22;13298;48.792;9.154;2023-04-24T02:07:09;10.00;99.90
25342;DHT22;13298;48.792;9.154;2023-04-24T02:09:34;9.90;99.90
25342;DHT22;13298;48.792;9.154;2023-04-24T02:12:00;9.90;99.90
25342;DHT22;13298;48.792;9.154;2023-04-24T02:14:26;9.90;99.90
25342;DHT22;13298;48.792;9.154;2023-04-24T02:16:51;9.80;99.90
25342;DHT22;13298;48.792;9.154;2023-04-24T02:19:18;9.80;99.90
25342;DHT22;13298;48.792;9.154;2023-04-24T02:21:44;9.80;99.90
25342;DHT22;13298;48.792;9.154;2023-04-24T02:24:10;9.90;99.90
25342;DHT22;13298;48.792;9.154;2023-04-24T02:26:35;9.90;99.90
25342;DHT22;13298;48.792;9.154;2023-04-24T02:29:01;10.00;99.90
25342;DHT22;13298;48.792;9.154;2023-04-24T02:31:27;10.10;99.90
25342;DHT22;13298;48.792;9.154;2023-04-24T02:33:52;10.20;99.90
25342;DHT22;13298;48.792;9.154;2023-04-24T02:36:18;10.20;99.90
25342;DHT22;13298;48.792;9.154;2023-04-24T02:38:44;10.30;99.90
25342;DHT22;13298;48.792;9.154;2023-04-24T02:41:09;10.30;99.90
25342;DHT22;13298;48.792;9.154;2023-04-24T02:43:35;10.40;99.90
25342;DHT22;13298;48.792;9.154;2023-04-24T02:46:01;10.40;99.90
25342;DHT22;13298;48.792;9.154;2023-04-24T02:48:27;10.30;99.90
25342;DHT22;13298;48.792;9.154;2023-04-24T02:50:53;10.30;99.90
25342;DHT22;13298;48.792;9.154;2023-04-24T02:53:18;10.20;99.90
25342;DHT22;13298;48.792;9.154;2023-04-24T02:55:44;10.20;99.90
25342;DHT22;13298;48.792;9.154;2023-04-24T02:58:11;10.10;99.90
25342;DHT22;13298;48.792;9.154;2023-04-24T03:00:38;10.00;99.90
25342;DHT22;13298;48.792;9.154;2023-04-24T03:03:04;10.00;99.90
25342;DHT22;13298;48.792;9.154;2023-04-24T03:05:30;9.90;99.90
25342;DHT22;13298;48.792;9.154;2023-04-24T03:07:56;9.80;99.90
25342;DHT22;13298;48.792;9.154;2023-04-24T03:10:22;9.80;99.90
25342;DHT22;13298;48.792;9.154;2023-04-24T03:12:48;9.70;99.90
25342;DHT22;13298;48.792;9.154;2023-04-24T03:15:15;9.70;99.90
25342;DHT22;13298;48.792;9.154;2023-04-24T03:17:41;9.60;99.90
25342;DHT22;13298;48.792;9.154;2023-04-24T03:20:07;9.60;99.90
25342;DHT22;13298;48.792;9.154;2023-04-24T03:22:34;9.50;99.90
25342;DHT22;13298;48.792;9.154;2023-04-24T03:25:00;9.40;99.90
25342;DHT22;13298;48.792;9.154;2023-04-24T03:27:26;9.30;99.90
25342;DHT22;13298;48.792;9.154;2023-04-24T03:29:52;9.30;99.90
25342;DHT22;13298;48.792;9.154;2023-04-24T03:32:23;9.20;99.90
25342;DHT22;13298;48.792;9.154;2023-04-24T03:34:49;9.30;99.90
25342;DHT22;13298;48.792;9.154;2023-04-24T03:37:16;9.30;99.90
25342;DHT22;13298;48.792;9.154;2023-04-24T03:39:42;9.30;99.90
25342;DHT22;13298;48.792;9.154;2023-04-24T03:42:08;9.40;99.90
25342;DHT22;13298;48.792;9.154;2023-04-24T03:44:34;9.40;99.90
25342;DHT22;13298;48.792;9.154;2023-04-24T03:47:01;9.30;99.90
25342;DHT22;13298;48.792;9.154;2023-04-24T03:49:26;9.30;99.90
25342;DHT22;13298;48.792;9.154;2023-04-24T03:51:52;9.20;99.90
25342;DHT22;13298;48.792;9.154;2023-04-24T03:54:21;9.10;99.90
25342;DHT22;13298;48.792;9.154;2023-04-24T03:56:46;9.10;99.90
25342;DHT22;13298;48.792;9.154;2023-04-24T03:59:12;9.10;99.90
25342;DHT22;13298;48.792;9.154;2023-04-24T04:01:38;9.00;99.90
25342;DHT22;13298;48.792;9.154;2023-04-24T04:04:05;8.90;99.90
25342;DHT22;13298;48.792;9.154;2023-04-24T04:06:31;8.90;99.90
25342;DHT22;13298;48.792;9.154;2023-04-24T04:08:58;8.90;99.90
25342;DHT22;13298;48.792;9.154;2023-04-24T04:11:24;8.90;99.90
25342;DHT22;13298;48.792;9.154;2023-04-24T04:13:50;9.10;99.90
25342;DHT22;13298;48.792;9.154;2023-04-24T04:16:15;9.10;99.90
25342;DHT22;13298;48.792;9.154;2023-04-24T04:18:43;9.20;99.90
25342;DHT22;13298;48.792;9.154;2023-04-24T04:21:09;9.30;99.90
25342;DHT22;13298;48.792;9.154;2023-04-24T04:23:34;9.40;99.90
25342;DHT22;13298;48.792;9.154;2023-04-24T04:26:01;9.40;99.90
25342;DHT22;13298;48.792;9.154;2023-04-24T04:28:27;9.50;99.90
25342;DHT22;13298;48.792;9.154;2023-04-24T04:30:53;9.50;99.90
25342;DHT22;13298;48.792;9.154;2023-04-24T04:33:23;9.50;99.90
25342;DHT22;13298;48.792;9.154;2023-04-24T04:35:49;9.40;99.90
25342;DHT22;13298;48.792;9.154;2023-04-24T04:38:17;9.30;99.90
25342;DHT22;13298;48.792;9.154;2023-04-24T04:40:44;9.20;99.90
25342;DHT22;13298;48.792;9.154;2023-04-24T04:43:10;9.20;99.90
25342;DHT22;13298;48.792;9.154;2023-04-24T04:45:37;9.10;99.90
25342;DHT22;13298;48.792;9.154;2023-04-24T04:48:04;9.10;99.90
25342;DHT22;13298;48.792;9.154;2023-04-24T04:50:32;9.00;99.90
25342;DHT22;13298;48.792;9.154;2023-04-24T04:52:58;9.00;99.90
25342;DHT22;13298;48.792;9.154;2023-04-24T04:55:24;9.00;99.90
25342;DHT22;13298;48.792;9.154;2023-04-24T04:57:51;9.00;99.90
25342;DHT22;13298;48.792;9.154;2023-04-24T05:00:17;8.90;99.90
25342;DHT22;13298;48.792;9.154;2023-04-24T05:02:43;8.90;99.90
25342;DHT22;13298;48.792;9.154;2023-04-24T05:05:08;8.80;99.90
25342;DHT22;13298;48.792;9.154;2023-04-24T05:07:35;8.80;99.90
25342;DHT22;13298;48.792;9.154;2023-04-24T05:10:01;8.80;99.90
25342;DHT22;13298;48.792;9.154;2023-04-24T05:12:26;8.80;99.90
25342;DHT22;13298;48.792;9.154;2023-04-24T05:14:52;8.70;99.90
25342;DHT22;13298;48.792;9.154;2023-04-24T05:17:18;8.70;99.90
25342;DHT22;13298;48.792;9.154;2023-04-24T05:19:44;8.60;99.90
25342;DHT22;13298;48.792;9.154;2023-04-24T05:22:10;8.60;99.90
25342;DHT22;13298;48.792;9.154;2023-04-24T05:24:37;8.60;99.90
25342;DHT22;13298;48.792;9.154;2023-04-24T05:27:03;8.50;99.90
25342;DHT22;13298;48.792;9.154;2023-04-24T05:29:32;8.60;99.90
25342;DHT22;13298;48.792;9.154;2023-04-24T05:31:59;8.60;99.90
25342;DHT22;13298;48.792;9.154;2023-04-24T05:34:25;8.70;99.90
25342;DHT22;13298;48.792;9.154;2023-04-24T05:36:54;8.70;99.90
25342;DHT22;13298;48.792;9.154;2023-04-24T05:39:19;8.70;99.90
25342;DHT22;13298;48.792;9.154;2023-04-24T05:41:45;8.80;99.90
25342;DHT22;13298;48.792;9.154;2023-04-24T05:44:11;8.70;99.90
25342;DHT22;13298;48.792;9.154;2023-04-24T05:46:37;8.60;99.90
25342;DHT22;13298;48.792;9.154;2023-04-24T05:49:02;8.60;99.90
25342;DHT22;13298;48.792;9.154;2023-04-24T05:51:28;8.60;99.90
25342;DHT22;13298;48.792;9.154;2023-04-24T05:53:54;8.70;99.90
25342;DHT22;13298;48.792;9.154;2023-04-24T05:56:20;8.80;99.90
25342;DHT22;13298;48.792;9.154;2023-04-24T05:58:46;8.90;99.90
25342;DHT22;13298;48.792;9.154;2023-04-24T06:01:13;9.00;99.90
25342;DHT22;13298;48.792;9.154;2023-04-24T06:03:40;9.00;99.90
25342;DHT22;13298;48.792;9.154;2023-04-24T06:06:07;9.00;99.90
25342;DHT22;13298;48.792;9.154;2023-04-24T06:08:33;9.00;99.90
25342;DHT22;13298;48.792;9.154;2023-04-24T06:11:00;8.90;99.90
25342;DHT22;13298;48.792;9.154;2023-04-24T06:13:25;8.90;99.90
25342;DHT22;13298;48.792;9.154;2023-04-24T06:15:52;8.80;99.90
25342;DHT22;13298;48.792;9.154;2023-04-24T06:18:18;8.80;99.90
25342;DHT22;13298;48.792;9.154;2023-04-24T06:20:44;8.70;99.90
25342;DHT22;13298;48.792;9.154;2023-04-24T06:23:10;8.70;99.90
25342;DHT22;13298;48.792;9.154;2023-04-24T06:25:37;8.70;99.90
25342;DHT22;13298;48.792;9.154;2023-04-24T06:28:03;8.90;99.90
25342;DHT22;13298;48.792;9.154;2023-04-24T06:30:29;9.20;99.90
25342;DHT22;13298;48.792;9.154;2023-04-24T06:32:54;9.60;99.90
25342;DHT22;13298;48.792;9.154;2023-04-24T06:35:20;9.90;99.90
25342;DHT22;13298;48.792;9.154;2023-04-24T06:37:46;10.20;99.90
25342;DHT22;13298;48.792;9.154;2023-04-24T06:40:12;10.40;99.90
25342;DHT22;13298;48.792;9.154;2023-04-24T06:42:38;10.60;99.90
25342;DHT22;13298;48.792;9.154;2023-04-24T06:45:04;10.80;99.90
25342;DHT22;13298;48.792;9.154;2023-04-24T06:47:30;10.90;99.90
25342;DHT22;13298;48.792;9.154;2023-04-24T06:49:56;11.00;99.90
25342;DHT22;13298;48.792;9.154;2023-04-24T06:52:22;11.00;99.90
25342;DHT22;13298;48.792;9.154;2023-04-24T06:54:48;11.10;99.90
25342;DHT22;13298;48.792;9.154;2023-04-24T06:57:13;11.20;99.90
25342;DHT22;13298;48.792;9.154;2023-04-24T06:59:41;11.30;99.90
25342;DHT22;13298;48.792;9.154;2023-04-24T07:02:07;11.40;99.90
25342;DHT22;13298;48.792;9.154;2023-04-24T07:04:32;11.60;99.90
25342;DHT22;13298;48.792;9.154;2023-04-24T07:06:58;12.00;99.90
25342;DHT22;13298;48.792;9.154;2023-04-24T07:09:25;12.10;99.90
25342;DHT22;13298;48.792;9.154;2023-04-24T07:11:54;12.10;99.90
25342;DHT22;13298;48.792;9.154;2023-04-24T07:14:21;12.00;99.90
25342;DHT22;13298;48.792;9.154;2023-04-24T07:16:48;12.00;99.90
25342;DHT22;13298;48.792;9.154;2023-04-24T07:19:13;11.80;99.90
25342;DHT22;13298;48.792;9.154;2023-04-24T07:21:39;11.70;99.90
25342;DHT22;13298;48.792;9.154;2023-04-24T07:24:05;11.70;99.90
25342;DHT22;13298;48.792;9.154;2023-04-24T07:26:34;11.70;99.90
25342;DHT22;13298;48.792;9.154;2023-04-24T07:29:00;11.70;99.90
25342;DHT22;13298;48.792;9.154;2023-04-24T07:31:26;11.70;99.90
25342;DHT22;13298;48.792;9.154;2023-04-24T07:33:52;11.80;99.90
25342;DHT22;13298;48.792;9.154;2023-04-24T07:36:17;12.00;99.90
25342;DHT22;13298;48.792;9.154;2023-04-24T07:38:47;12.20;99.90
25342;DHT22;13298;48.792;9.154;2023-04-24T07:41:13;12.40;99.90
25342;DHT22;13298;48.792;9.154;2023-04-24T07:43:40;12.70;99.90
25342;DHT22;13298;48.792;9.154;2023-04-24T07:46:06;13.00;99.90
25342;DHT22;13298;48.792;9.154;2023-04-24T07:48:32;13.20;99.90
25342;DHT22;13298;48.792;9.154;2023-04-24T07:50:58;13.30;99.90
25342;DHT22;13298;48.792;9.154;2023-04-24T07:53:24;13.10;99.90
25342;DHT22;13298;48.792;9.154;2023-04-24T07:55:50;12.80;99.90
25342;DHT22;13298;48.792;9.154;2023-04-24T07:58:15;12.60;99.90
25342;DHT22;13298;48.792;9.154;2023-04-24T08:00:41;12.60;99.90
25342;DHT22;13298;48.792;9.154;2023-04-24T08:03:07;12.70;99.90
25342;DHT22;13298;48.792;9.154;2023-04-24T08:05:33;12.90;99.90
25342;DHT22;13298;48.792;9.154;2023-04-24T08:07:58;12.90;99.90
25342;DHT22;13298;48.792;9.154;2023-04-24T08:10:25;12.80;99.90
25342;DHT22;13298;48.792;9.154;2023-04-24T08:12:51;12.60;99.90
25342;DHT22;13298;48.792;9.154;2023-04-24T08:15:17;12.40;99.90
25342;DHT22;13298;48.792;9.154;2023-04-24T08:17:43;12.30;99.90
25342;DHT22;13298;48.792;9.154;2023-04-24T08:20:10;12.20;99.90
25342;DHT22;13298;48.792;9.154;2023-04-24T08:22:39;12.10;99.90
25342;DHT22;13298;48.792;9.154;2023-04-24T08:25:06;12.00;99.90
25342;DHT22;13298;48.792;9.154;2023-04-24T08:27:32;12.00;99.90
25342;DHT22;13298;48.792;9.154;2023-04-24T08:29:58;11.90;99.90
25342;DHT22;13298;48.792;9.154;2023-04-24T08:32:26;12.00;99.90
25342;DHT22;13298;48.792;9.154;2023-04-24T08:34:59;12.00;99.90
25342;DHT22;13298;48.792;9.154;2023-04-24T08:37:26;12.10;99.90
25342;DHT22;13298;48.792;9.154;2023-04-24T08:39:52;12.00;99.90
25342;DHT22;13298;48.792;9.154;2023-04-24T08:42:19;12.00;99.90
25342;DHT22;13298;48.792;9.154;2023-04-24T08:44:46;12.10;99.90
25342;DHT22;13298;48.792;9.154;2023-04-24T08:47:15;12.30;99.90
25342;DHT22;13298;48.792;9.154;2023-04-24T08:49:41;12.50;99.90
25342;DHT22;13298;48.792;9.154;2023-04-24T08:52:08;12.50;99.90
25342;DHT22;13298;48.792;9.154;2023-04-24T08:54:35;12.50;99.90
25342;DHT22;13298;48.792;9.154;2023-04-24T08:57:02;12.50;99.90
25342;DHT22;13298;48.792;9.154;2023-04-24T08:59:29;12.40;99.90
25342;DHT22;13298;48.792;9.154;2023-04-24T09:01:56;12.20;99.90
25342;DHT22;13298;48.792;9.154;2023-04-24T09:04:23;12.10;99.90
25342;DHT22;13298;48.792;9.154;2023-04-24T09:06:57;12.10;99.90
25342;DHT22;13298;48.792;9.154;2023-04-24T09:09:23;12.10;99.90
25342;DHT22;13298;48.792;9.154;2023-04-24T09:11:51;11.90;99.90
25342;DHT22;13298;48.792;9.154;2023-04-24T09:14:19;11.70;99.90
25342;DHT22;13298;48.792;9.154;2023-04-24T09:16:45;11.40;99.90
25342;DHT22;13298;48.792;9.154;2023-04-24T09:19:11;11.30;99.90
25342;DHT22;13298;48.792;9.154;2023-04-24T09:21:37;11.10;99.90
25342;DHT22;13298;48.792;9.154;2023-04-24T09:24:05;11.00;99.90
25342;DHT22;13298;48.792;9.154;2023-04-24T09:26:35;10.70;99.90
25342;DHT22;13298;48.792;9.154;2023-04-24T09:29:03;10.60;99.90
25342;DHT22;13298;48.792;9.154;2023-04-24T09:31:29;10.50;99.90
25342;DHT22;13298;48.792;9.154;2023-04-24T09:34:00;10.60;99.90
25342;DHT22;13298;48.792;9.154;2023-04-24T09:39:09;10.80;99.90
25342;DHT22;13298;48.792;9.154;2023-04-24T09:41:51;10.80;99.90
25342;DHT22;13298;48.792;9.154;2023-04-24T09:44:19;10.90;99.90
25342;DHT22;13298;48.792;9.154;2023-04-24T09:46:55;11.20;99.90
25342;DHT22;13298;48.792;9.154;2023-04-24T09:49:27;11.60;99.90
25342;DHT22;13298;48.792;9.154;2023-04-24T09:52:08;11.80;99.90
25342;DHT22;13298;48.792;9.154;2023-04-24T09:54:53;11.90;99.90
25342;DHT22;13298;48.792;9.154;2023-04-24T09:57:19;12.00;99.90
25342;DHT22;13298;48.792;9.154;2023-04-24T09:59:46;12.00;99.90
25342;DHT22;13298;48.792;9.154;2023-04-24T10:02:19;12.00;99.90
25342;DHT22;13298;48.792;9.154;2023-04-24T10:04:54;12.10;99.90
25342;DHT22;13298;48.792;9.154;2023-04-24T10:07:21;12.30;99.90
25342;DHT22;13298;48.792;9.154;2023-04-24T10:09:47;12.50;99.90
25342;DHT22;13298;48.792;9.154;2023-04-24T10:12:13;12.40;99.90
25342;DHT22;13298;48.792;9.154;2023-04-24T10:14:40;12.20;99.90
25342;DHT22;13298;48.792;9.154;2023-04-24T10:17:06;12.00;99.90
25342;DHT22;13298;48.792;9.154;2023-04-24T10:19:33;11.90;99.90
25342;DHT22;13298;48.792;9.154;2023-04-24T10:22:01;11.90;99.90
25342;DHT22;13298;48.792;9.154;2023-04-24T10:24:28;12.10;99.90
25342;DHT22;13298;48.792;9.154;2023-04-24T10:26:55;12.60;99.90
25342;DHT22;13298;48.792;9.154;2023-04-24T10:29:22;13.10;99.90
25342;DHT22;13298;48.792;9.154;2023-04-24T10:31:48;13.50;99.90
25342;DHT22;13298;48.792;9.154;2023-04-24T10:34:16;13.80;99.90
25342;DHT22;13298;48.792;9.154;2023-04-24T10:36:48;13.90;99.90
25342;DHT22;13298;48.792;9.154;2023-04-24T10:39:16;13.70;99.90
25342;DHT22;13298;48.792;9.154;2023-04-24T10:41:43;13.50;99.90
25342;DHT22;13298;48.792;9.154;2023-04-24T10:44:10;13.20;99.90
25342;DHT22;13298;48.792;9.154;2023-04-24T10:46:37;13.20;99.90
25342;DHT22;13298;48.792;9.154;2023-04-24T10:49:05;13.10;99.90
25342;DHT22;13298;48.792;9.154;2023-04-24T10:51:50;13.20;99.90
25342;DHT22;13298;48.792;9.154;2023-04-24T10:54:33;13.30;99.90
25342;DHT22;13298;48.792;9.154;2023-04-24T10:59:46;13.40;99.90
25342;DHT22;13298;48.792;9.154;2023-04-24T11:02:17;13.40;99.90
25342;DHT22;13298;48.792;9.154;2023-04-24T11:04:44;13.30;99.90
25342;DHT22;13298;48.792;9.154;2023-04-24T11:07:10;13.30;99.90
25342;DHT22;13298;48.792;9.154;2023-04-24T11:09:37;13.10;99.90
25342;DHT22;13298;48.792;9.154;2023-04-24T11:12:07;13.00;99.90
25342;DHT22;13298;48.792;9.154;2023-04-24T11:17:37;13.00;99.90
25342;DHT22;13298;48.792;9.154;2023-04-24T11:20:17;13.00;99.90
25342;DHT22;13298;48.792;9.154;2023-04-24T11:22:43;13.00;99.90
25342;DHT22;13298;48.792;9.154;2023-04-24T11:25:09;13.00;99.90
25342;DHT22;13298;48.792;9.154;2023-04-24T11:27:42;13.10;99.90
25342;DHT22;13298;48.792;9.154;2023-04-24T11:30:09;13.20;99.90
25342;DHT22;13298;48.792;9.154;2023-04-24T11:32:37;13.40;99.90
25342;DHT22;13298;48.792;9.154;2023-04-24T11:35:16;13.60;99.90
25342;DHT22;13298;48.792;9.154;2023-04-24T11:37:44;14.10;99.90
25342;DHT22;13298;48.792;9.154;2023-04-24T11:40:16;14.50;98.90
25342;DHT22;13298;48.792;9.154;2023-04-24T11:42:45;14.40;99.30
25342;DHT22;13298;48.792;9.154;2023-04-24T11:47:44;14.10;99.60
25342;DHT22;13298;48.792;9.154;2023-04-24T11:50:15;13.70;99.90
25342;DHT22;13298;48.792;9.154;2023-04-24T11:52:43;13.20;99.90
25342;DHT22;13298;48.792;9.154;2023-04-24T11:57:47;13.00;99.90
25342;DHT22;13298;48.792;9.154;2023-04-24T12:00:22;13.10;99.90
25342;DHT22;13298;48.792;9.154;2023-04-24T12:02:49;13.10;99.90
25342;DHT22;13298;48.792;9.154;2023-04-24T12:05:25;13.40;99.90
25342;DHT22;13298;48.792;9.154;2023-04-24T12:07:52;13.80;99.90
25342;DHT22;13298;48.792;9.154;2023-04-24T12:10:23;14.10;99.90
25342;DHT22;13298;48.792;9.154;2023-04-24T12:12:52;14.20;99.70
25342;DHT22;13298;48.792;9.154;2023-04-24T12:15:19;14.20;99.90
25342;DHT22;13298;48.792;9.154;2023-04-24T12:17:46;14.20;99.90
25342;DHT22;13298;48.792;9.154;2023-04-24T12:20:12;14.10;99.90
25342;DHT22;13298;48.792;9.154;2023-04-24T12:22:53;13.80;99.90
25342;DHT22;13298;48.792;9.154;2023-04-24T12:25:26;13.40;99.90
25342;DHT22;13298;48.792;9.154;2023-04-24T12:27:55;13.30;99.90
25342;DHT22;13298;48.792;9.154;2023-04-24T12:30:56;13.40;99.90
25342;DHT22;13298;48.792;9.154;2023-04-24T12:33:22;13.70;99.90
25342;DHT22;13298;48.792;9.154;2023-04-24T12:35:51;13.80;99.90
25342;DHT22;13298;48.792;9.154;2023-04-24T12:38:22;13.60;99.90
25342;DHT22;13298;48.792;9.154;2023-04-24T12:41:04;13.40;99.90
25342;DHT22;13298;48.792;9.154;2023-04-24T12:43:31;13.40;99.90
25342;DHT22;13298;48.792;9.154;2023-04-24T12:45:57;13.70;99.80
25342;DHT22;13298;48.792;9.154;2023-04-24T12:48:27;13.90;99.80
25342;DHT22;13298;48.792;9.154;2023-04-24T12:50:54;14.00;99.20
25342;DHT22;13298;48.792;9.154;2023-04-24T12:53:20;13.80;99.00
25342;DHT22;13298;48.792;9.154;2023-04-24T12:55:46;13.50;99.80
25342;DHT22;13298;48.792;9.154;2023-04-24T12:58:19;13.00;99.90
25342;DHT22;13298;48.792;9.154;2023-04-24T13:00:45;12.70;99.90
25342;DHT22;13298;48.792;9.154;2023-04-24T13:03:12;12.50;99.90
25342;DHT22;13298;48.792;9.154;2023-04-24T13:05:37;12.10;99.90
25342;DHT22;13298;48.792;9.154;2023-04-24T13:08:03;11.60;99.90
25342;DHT22;13298;48.792;9.154;2023-04-24T13:10:29;11.40;99.90
25342;DHT22;13298;48.792;9.154;2023-04-24T13:12:55;11.30;99.90
25342;DHT22;13298;48.792;9.154;2023-04-24T13:15:21;11.30;99.90
25342;DHT22;13298;48.792;9.154;2023-04-24T13:17:47;11.80;99.90
25342;DHT22;13298;48.792;9.154;2023-04-24T13:20:13;12.40;99.90
25342;DHT22;13298;48.792;9.154;2023-04-24T13:22:38;12.70;99.90
25342;DHT22;13298;48.792;9.154;2023-04-24T13:25:05;13.00;99.90
25342;DHT22;13298;48.792;9.154;2023-04-24T13:27:34;13.20;99.90
25342;DHT22;13298;48.792;9.154;2023-04-24T13:30:00;13.60;99.90
25342;DHT22;13298;48.792;9.154;2023-04-24T13:32:26;13.90;99.90
25342;DHT22;13298;48.792;9.154;2023-04-24T13:34:52;14.00;99.90
25342;DHT22;13298;48.792;9.154;2023-04-24T13:37:18;14.00;99.90
25342;DHT22;13298;48.792;9.154;2023-04-24T13:39:44;13.90;99.90
25342;DHT22;13298;48.792;9.154;2023-04-24T13:42:10;13.70;99.90
25342;DHT22;13298;48.792;9.154;2023-04-24T13:44:36;13.60;99.90
25342;DHT22;13298;48.792;9.154;2023-04-24T13:47:01;13.40;99.90
25342;DHT22;13298;48.792;9.154;2023-04-24T13:49:28;13.10;99.90
25342;DHT22;13298;48.792;9.154;2023-04-24T13:51:55;12.50;99.90
25342;DHT22;13298;48.792;9.154;2023-04-24T13:54:21;11.90;99.90
25342;DHT22;13298;48.792;9.154;2023-04-24T13:56:48;11.40;99.90
25342;DHT22;13298;48.792;9.154;2023-04-24T13:59:14;11.10;99.90
25342;DHT22;13298;48.792;9.154;2023-04-24T14:01:40;10.90;99.90
25342;DHT22;13298;48.792;9.154;2023-04-24T14:04:06;10.90;99.90
25342;DHT22;13298;48.792;9.154;2023-04-24T14:06:31;10.90;99.90
25342;DHT22;13298;48.792;9.154;2023-04-24T14:08:57;11.00;99.90
25342;DHT22;13298;48.792;9.154;2023-04-24T14:11:23;11.20;99.90
25342;DHT22;13298;48.792;9.154;2023-04-24T14:13:49;11.40;99.90
25342;DHT22;13298;48.792;9.154;2023-04-24T14:16:15;11.50;99.90
25342;DHT22;13298;48.792;9.154;2023-04-24T14:18:40;11.40;99.90
25342;DHT22;13298;48.792;9.154;2023-04-24T14:21:06;11.50;99.90
25342;DHT22;13298;48.792;9.154;2023-04-24T14:23:32;11.70;99.90
25342;DHT22;13298;48.792;9.154;2023-04-24T14:25:59;11.60;99.90
25342;DHT22;13298;48.792;9.154;2023-04-24T14:28:25;11.60;99.90
25342;DHT22;13298;48.792;9.154;2023-04-24T14:30:51;11.60;99.90
25342;DHT22;13298;48.792;9.154;2023-04-24T14:33:17;11.60;99.90
25342;DHT22;13298;48.792;9.154;2023-04-24T14:35:43;11.70;99.90
25342;DHT22;13298;48.792;9.154;2023-04-24T14:38:10;11.80;99.90
25342;DHT22;13298;48.792;9.154;2023-04-24T14:40:36;11.90;99.90
25342;DHT22;13298;48.792;9.154;2023-04-24T14:43:02;11.80;99.90
25342;DHT22;13298;48.792;9.154;2023-04-24T14:45:28;11.60;99.90
25342;DHT22;13298;48.792;9.154;2023-04-24T14:47:54;11.50;99.90
25342;DHT22;13298;48.792;9.154;2023-04-24T14:50:20;11.50;99.90
25342;DHT22;13298;48.792;9.154;2023-04-24T14:52:46;11.60;99.90
25342;DHT22;13298;48.792;9.154;2023-04-24T14:55:12;11.70;99.90
25342;DHT22;13298;48.792;9.154;2023-04-24T14:57:38;11.90;99.90
25342;DHT22;13298;48.792;9.154;2023-04-24T15:00:06;12.00;99.90
25342;DHT22;13298;48.792;9.154;2023-04-24T15:02:34;12.30;99.90
25342;DHT22;13298;48.792;9.154;2023-04-24T15:05:02;12.80;99.90
25342;DHT22;13298;48.792;9.154;2023-04-24T15:07:28;13.00;99.90
25342;DHT22;13298;48.792;9.154;2023-04-24T15:09:54;12.80;99.90
25342;DHT22;13298;48.792;9.154;2023-04-24T15:12:21;12.60;99.90
25342;DHT22;13298;48.792;9.154;2023-04-24T15:14:47;12.50;99.90
25342;DHT22;13298;48.792;9.154;2023-04-24T15:17:13;12.50;99.90
25342;DHT22;13298;48.792;9.154;2023-04-24T15:19:38;12.40;99.90
25342;DHT22;13298;48.792;9.154;2023-04-24T15:22:04;12.30;99.90
25342;DHT22;13298;48.792;9.154;2023-04-24T15:24:30;12.30;99.90
25342;DHT22;13298;48.792;9.154;2023-04-24T15:26:55;12.10;99.90
25342;DHT22;13298;48.792;9.154;2023-04-24T15:29:21;11.80;99.90
25342;DHT22;13298;48.792;9.154;2023-04-24T15:31:47;11.50;99.90
25342;DHT22;13298;48.792;9.154;2023-04-24T15:34:13;11.30;99.90
25342;DHT22;13298;48.792;9.154;2023-04-24T15:36:38;11.20;99.90
25342;DHT22;13298;48.792;9.154;2023-04-24T15:39:04;11.00;99.90
25342;DHT22;13298;48.792;9.154;2023-04-24T15:41:30;10.70;99.90
25342;DHT22;13298;48.792;9.154;2023-04-24T15:43:57;10.50;99.90
25342;DHT22;13298;48.792;9.154;2023-04-24T15:46:23;10.50;99.90